createdAt,value
2017-03-01T00:00:59.192Z,6.05
2017-03-01T00:02:13.413Z,6.01
2017-03-01T00:03:28.849Z,6.07
2017-03-01T00:04:43.099Z,6.1
2017-03-01T00:05:57.697Z,5.94
2017-03-01T00:07:11.758Z,6.05
2017-03-01T00:08:25.977Z,6.02
2017-03-01T00:09:41.039Z,5.94
2017-03-01T00:10:55.656Z,5.95
2017-03-01T00:12:10.240Z,6.06
2017-03-01T00:13:25.522Z,6.05
2017-03-01T00:14:40.523Z,5.97
2017-03-01T00:15:54.977Z,5.98
2017-03-01T00:17:09.208Z,6.09
2017-03-01T00:18:23.388Z,6.01
2017-03-01T00:19:38.623Z,6.07
2017-03-01T00:20:54.404Z,5.91
2017-03-01T00:22:10.563Z,6.02
2017-03-01T00:23:26.814Z,6.1
2017-03-01T00:24:42.266Z,5.98
2017-03-01T00:25:57.495Z,6.05
2017-03-01T00:27:12.519Z,6.09
2017-03-01T00:28:28.334Z,6.07
2017-03-01T00:29:44.015Z,6.12
2017-03-01T00:30:59.296Z,6.15
2017-03-01T00:32:15.093Z,6.17
2017-03-01T00:33:30.386Z,6.15
2017-03-01T00:34:45.355Z,6.16
2017-03-01T00:36:00.172Z,6.22
2017-03-01T00:37:16.381Z,6.26
2017-03-01T00:38:33.991Z,6.1
2017-03-01T00:39:49.244Z,6.19
2017-03-01T00:41:05.111Z,6.28
2017-03-01T00:42:20.659Z,6.2
2017-03-01T00:43:35.584Z,6.28
2017-03-01T00:44:51.176Z,6.19
2017-03-01T00:46:06.285Z,6.22
2017-03-01T00:47:21.803Z,6.29
2017-03-01T00:48:36.813Z,6.28
2017-03-01T00:49:52.044Z,6.32
2017-03-01T00:51:06.346Z,6.32
2017-03-01T00:52:21.154Z,6.26
2017-03-01T00:53:37.495Z,6.32
2017-03-01T00:54:52.760Z,6.36
2017-03-01T00:56:08.795Z,6.26
2017-03-01T00:57:23.688Z,6.31
2017-03-01T00:58:38.996Z,6.31
2017-03-01T00:59:54.955Z,6.2
2017-03-01T01:01:09.435Z,6.17
2017-03-01T01:02:25.375Z,6.22
2017-03-01T01:03:40.223Z,6.22
2017-03-01T01:04:54.390Z,6.15
2017-03-01T01:06:09.241Z,6.16
2017-03-01T01:07:25.676Z,6.19
2017-03-01T01:08:40.542Z,6.17
2017-03-01T01:09:56.130Z,6.25
2017-03-01T01:11:13.261Z,6.2
2017-03-01T01:12:28.723Z,6.2
2017-03-01T01:13:42.994Z,6.25
2017-03-01T01:14:58.553Z,6.2
2017-03-01T01:16:15.079Z,6.25
2017-03-01T01:17:34.153Z,6.25
2017-03-01T01:18:49.538Z,6.15
2017-03-01T01:20:05.606Z,6.2
2017-03-01T01:21:21.720Z,6.26
2017-03-01T01:22:37.047Z,6.2
2017-03-01T01:23:52.937Z,6.15
2017-03-01T01:25:08.564Z,6.16
2017-03-01T01:26:24.360Z,6.22
2017-03-01T01:27:39.864Z,6.2
2017-03-01T01:28:55.412Z,6.17
2017-03-01T01:30:10.344Z,6.22
2017-03-01T01:31:24.737Z,6.15
2017-03-01T01:32:39.002Z,6.17
2017-03-01T01:33:54.309Z,6.16
2017-03-01T01:35:09.227Z,6.2
2017-03-01T01:36:24.396Z,6.25
2017-03-01T01:37:40.568Z,6.1
2017-03-01T01:38:56.485Z,6.2
2017-03-01T01:40:10.960Z,6.16
2017-03-01T01:41:25.229Z,6.13
2017-03-01T01:42:40.906Z,6.25
2017-03-01T01:43:55.392Z,6.2
2017-03-01T01:45:22.600Z,6.16
2017-03-01T01:46:37.488Z,6.28
2017-03-01T01:47:52.368Z,6.25
2017-03-01T01:49:07.546Z,6.15
2017-03-01T01:50:22.836Z,6.19
2017-03-01T01:51:38.191Z,6.19
2017-03-01T01:52:53.028Z,6.09
2017-03-01T01:54:22.325Z,6.13
2017-03-01T01:55:37.020Z,6.12
2017-03-01T01:56:54.201Z,6.17
2017-03-01T01:58:09.197Z,6.22
2017-03-01T01:59:38.668Z,6.16
2017-03-01T02:00:53.397Z,6.05
2017-03-01T02:02:07.909Z,6.12
2017-03-01T02:03:22.229Z,6.13
2017-03-01T02:04:36.937Z,6.17
2017-03-01T02:05:51.560Z,6.15
2017-03-01T02:07:05.624Z,6.2
2017-03-01T02:08:20.598Z,6.13
2017-03-01T02:09:34.867Z,6.16
2017-03-01T02:10:49.470Z,6.19
2017-03-01T02:12:07.015Z,6.09
2017-03-01T02:13:21.151Z,6.06
2017-03-01T02:14:36.348Z,6.05
2017-03-01T02:15:50.436Z,5.97
2017-03-01T02:17:04.789Z,6.01
2017-03-01T02:18:19.452Z,6.05
2017-03-01T02:19:33.736Z,6.09
2017-03-01T02:20:48.069Z,6.17
2017-03-01T02:22:02.806Z,6.13
2017-03-01T02:23:17.349Z,6.01
2017-03-01T02:24:31.469Z,6.06
2017-03-01T02:25:45.607Z,6.01
2017-03-01T02:26:59.853Z,6.01
2017-03-01T02:28:14.650Z,6.05
2017-03-01T02:29:28.677Z,5.99
2017-03-01T02:30:42.740Z,6.01
2017-03-01T02:31:56.960Z,5.99
2017-03-01T02:33:11.102Z,5.94
2017-03-01T02:34:25.347Z,5.98
2017-03-01T02:35:40.020Z,6.02
2017-03-01T02:36:54.037Z,5.95
2017-03-01T02:38:08.171Z,5.98
2017-03-01T02:39:23.020Z,5.92
2017-03-01T02:40:37.684Z,5.91
2017-03-01T02:41:51.955Z,5.91
2017-03-01T02:43:06.003Z,5.92
2017-03-01T02:44:21.029Z,5.92
2017-03-01T02:45:35.638Z,5.94
2017-03-01T02:46:50.255Z,5.84
2017-03-01T02:48:04.653Z,5.84
2017-03-01T02:49:20.082Z,5.84
2017-03-01T02:50:34.454Z,5.92
2017-03-01T02:51:49.154Z,5.81
2017-03-01T02:53:03.247Z,5.69
2017-03-01T02:54:17.368Z,5.73
2017-03-01T02:55:31.455Z,5.67
2017-03-01T02:56:46.772Z,5.72
2017-03-01T02:58:00.871Z,5.72
2017-03-01T02:59:14.883Z,5.7
2017-03-01T03:00:29.118Z,5.77
2017-03-01T03:01:43.330Z,5.74
2017-03-01T03:02:57.527Z,5.79
2017-03-01T03:04:11.558Z,5.76
2017-03-01T03:05:25.729Z,5.76
2017-03-01T03:06:46.654Z,5.74
2017-03-01T03:08:01.257Z,5.69
2017-03-01T03:09:15.301Z,5.79
2017-03-01T03:10:29.544Z,5.77
2017-03-01T03:11:44.017Z,5.69
2017-03-01T03:12:58.140Z,5.73
2017-03-01T03:14:15.066Z,5.83
2017-03-01T03:15:29.184Z,5.84
2017-03-01T03:16:44.188Z,5.74
2017-03-01T03:17:58.438Z,5.79
2017-03-01T03:19:12.861Z,5.81
2017-03-01T03:20:26.875Z,5.8
2017-03-01T03:21:41.046Z,5.79
2017-03-01T03:22:55.309Z,5.8
2017-03-01T03:24:09.480Z,5.7
2017-03-01T03:25:24.314Z,5.73
2017-03-01T03:26:39.362Z,5.79
2017-03-01T03:27:53.608Z,5.72
2017-03-01T03:29:07.599Z,5.77
2017-03-01T03:30:21.710Z,5.84
2017-03-01T03:31:35.699Z,5.77
2017-03-01T03:33:22.466Z,5.74
2017-03-01T03:34:36.950Z,5.72
2017-03-01T03:35:51.390Z,5.69
2017-03-01T03:37:05.477Z,5.67
2017-03-01T03:38:19.540Z,5.69
2017-03-01T03:39:33.961Z,5.64
2017-03-01T03:40:48.085Z,5.58
2017-03-01T03:42:02.115Z,5.69
2017-03-01T03:43:16.566Z,5.67
2017-03-01T03:44:30.553Z,5.56
2017-03-01T03:45:44.539Z,5.62
2017-03-01T03:46:58.579Z,5.72
2017-03-01T03:48:12.703Z,5.76
2017-03-01T03:49:27.966Z,5.81
2017-03-01T03:50:42.052Z,5.76
2017-03-01T03:51:56.090Z,5.83
2017-03-01T03:53:10.222Z,5.88
2017-03-01T03:54:24.328Z,5.88
2017-03-01T03:55:38.792Z,5.83
2017-03-01T03:56:52.893Z,5.92
2017-03-01T03:58:07.103Z,5.83
2017-03-01T03:59:22.152Z,5.97
2017-03-01T04:00:36.679Z,5.98
2017-03-01T04:01:51.586Z,6.02
2017-03-01T04:03:05.621Z,5.95
2017-03-01T04:04:20.021Z,5.91
2017-03-01T04:05:34.294Z,5.81
2017-03-01T04:06:48.803Z,5.83
2017-03-01T04:08:02.947Z,5.94
2017-03-01T04:09:17.466Z,5.84
2017-03-01T04:12:01.250Z,5.99
2017-03-01T04:13:15.352Z,5.83
2017-03-01T04:14:29.370Z,5.9
2017-03-01T04:15:43.560Z,5.88
2017-03-01T04:16:58.151Z,5.84
2017-03-01T04:18:13.093Z,5.87
2017-03-01T04:19:27.702Z,5.84
2017-03-01T04:20:42.416Z,5.87
2017-03-01T04:21:56.653Z,5.87
2017-03-01T04:23:10.957Z,5.88
2017-03-01T04:24:25.381Z,5.9
2017-03-01T04:25:40.009Z,5.84
2017-03-01T04:26:54.193Z,5.84
2017-03-01T04:28:08.603Z,5.84
2017-03-01T04:29:23.409Z,5.94
2017-03-01T04:30:37.785Z,5.87
2017-03-01T04:31:52.402Z,5.95
2017-03-01T04:33:09.485Z,5.97
2017-03-01T04:34:24.118Z,5.94
2017-03-01T04:35:38.665Z,5.95
2017-03-01T04:36:52.822Z,5.95
2017-03-01T04:38:07.051Z,5.95
2017-03-01T04:39:21.613Z,5.87
2017-03-01T04:40:35.745Z,5.99
2017-03-01T04:41:49.968Z,5.92
2017-03-01T04:43:05.533Z,6.02
2017-03-01T04:44:19.760Z,6.02
2017-03-01T04:45:33.925Z,5.98
2017-03-01T04:46:48.149Z,6.01
2017-03-01T04:48:02.413Z,5.94
2017-03-01T04:49:16.865Z,6.01
2017-03-01T04:50:31.136Z,6.02
2017-03-01T04:51:46.205Z,6.09
2017-03-01T04:53:02.560Z,6.25
2017-03-01T04:54:18.122Z,6.16
2017-03-01T04:55:33.123Z,6.19
2017-03-01T04:56:47.215Z,6.19
2017-03-01T04:58:02.857Z,6.17
2017-03-01T04:59:17.625Z,6.15
2017-03-01T05:00:33.329Z,6.22
2017-03-01T05:01:47.886Z,6.12
2017-03-01T05:03:02.111Z,6.13
2017-03-01T05:04:16.967Z,6.15
2017-03-01T05:05:32.156Z,6.28
2017-03-01T05:06:46.840Z,6.26
2017-03-01T05:08:01.176Z,6.26
2017-03-01T05:09:15.645Z,6.31
2017-03-01T05:10:30.241Z,6.25
2017-03-01T05:11:44.550Z,6.28
2017-03-01T05:12:58.693Z,6.17
2017-03-01T05:14:14.595Z,6.26
2017-03-01T05:15:28.788Z,6.22
2017-03-01T05:16:43.062Z,6.26
2017-03-01T05:17:58.122Z,6.29
2017-03-01T05:19:13.169Z,6.29
2017-03-01T05:20:28.117Z,6.34
2017-03-01T05:21:44.232Z,6.35
2017-03-01T05:22:58.915Z,6.35
2017-03-01T05:24:13.335Z,6.36
2017-03-01T05:25:27.645Z,6.32
2017-03-01T05:26:42.402Z,6.43
2017-03-01T05:27:56.652Z,6.47
2017-03-01T05:29:10.915Z,6.41
2017-03-01T05:30:25.140Z,6.39
2017-03-01T05:31:39.300Z,6.36
2017-03-01T05:32:54.072Z,6.41
2017-03-01T05:34:08.112Z,6.44
2017-03-01T05:35:22.325Z,7.13
2017-03-01T05:36:36.541Z,7.72
2017-03-01T05:37:52.974Z,7.78
2017-03-01T05:39:07.513Z,7.78
2017-03-01T05:40:23.605Z,7.29
2017-03-01T05:41:40.643Z,7
2017-03-01T05:43:01.300Z,6.8
2017-03-01T05:44:22.800Z,6.64
2017-03-01T05:45:44.727Z,6.7
2017-03-01T05:47:03.781Z,6.57
2017-03-01T05:48:24.546Z,6.65
2017-03-01T05:49:44.845Z,6.6
2017-03-01T05:51:11.885Z,6.54
2017-03-01T05:52:34.107Z,6.57
2017-03-01T05:53:56.263Z,6.6
2017-03-01T05:55:16.288Z,6.62
2017-03-01T05:56:38.271Z,6.57
2017-03-01T05:57:59.903Z,6.52
2017-03-01T05:59:17.720Z,6.57
2017-03-01T06:00:35.012Z,6.57
2017-03-01T06:01:49.868Z,6.53
2017-03-01T06:03:04.799Z,6.6
2017-03-01T06:04:19.289Z,6.54
2017-03-01T06:05:33.477Z,6.52
2017-03-01T06:06:48.249Z,6.5
2017-03-01T06:08:02.292Z,6.52
2017-03-01T06:09:16.832Z,6.57
2017-03-01T06:10:31.356Z,6.54
2017-03-01T06:11:45.431Z,6.56
2017-03-01T06:12:59.913Z,6.6
2017-03-01T06:14:15.053Z,6.6
2017-03-01T06:15:29.523Z,6.65
2017-03-01T06:16:44.154Z,6.57
2017-03-01T06:17:59.238Z,6.65
2017-03-01T06:19:15.383Z,6.59
2017-03-01T06:20:30.082Z,6.62
2017-03-01T06:21:45.590Z,6.6
2017-03-01T06:23:00.970Z,6.64
2017-03-01T06:24:15.932Z,6.59
2017-03-01T06:25:30.525Z,6.6
2017-03-01T06:26:45.188Z,6.67
2017-03-01T06:28:00.295Z,6.6
2017-03-01T06:29:14.909Z,6.62
2017-03-01T06:30:29.010Z,6.68
2017-03-01T06:31:43.558Z,6.68
2017-03-01T06:32:58.353Z,6.67
2017-03-01T06:34:13.279Z,6.64
2017-03-01T06:35:27.299Z,6.71
2017-03-01T06:36:41.895Z,6.64
2017-03-01T06:37:56.016Z,6.68
2017-03-01T06:39:11.167Z,6.64
2017-03-01T06:40:26.175Z,6.71
2017-03-01T06:41:40.262Z,6.72
2017-03-01T06:42:54.931Z,6.74
2017-03-01T06:44:09.261Z,6.71
2017-03-01T06:45:23.459Z,6.85
2017-03-01T06:46:38.494Z,6.87
2017-03-01T06:47:52.705Z,6.78
2017-03-01T06:49:07.182Z,6.85
2017-03-01T06:50:22.761Z,6.89
2017-03-01T06:51:36.985Z,6.86
2017-03-01T06:52:51.584Z,6.9
2017-03-01T06:54:05.719Z,6.89
2017-03-01T06:55:20.725Z,6.86
2017-03-01T06:56:35.601Z,6.83
2017-03-01T06:57:50.594Z,6.83
2017-03-01T06:59:05.280Z,6.83
2017-03-01T07:00:19.557Z,6.89
2017-03-01T07:01:34.535Z,6.96
2017-03-01T07:02:48.631Z,7.01
2017-03-01T07:04:02.764Z,7.04
2017-03-01T07:05:17.846Z,7.14
2017-03-01T07:06:32.542Z,7.04
2017-03-01T07:07:48.447Z,7.03
2017-03-01T07:09:04.944Z,6.96
2017-03-01T07:10:19.527Z,7.04
2017-03-01T07:11:34.122Z,6.93
2017-03-01T07:12:48.181Z,6.95
2017-03-01T07:14:01.803Z,6.93
2017-03-01T07:15:15.967Z,6.87
2017-03-01T07:16:30.535Z,6.93
2017-03-01T07:17:45.711Z,6.93
2017-03-01T07:18:59.828Z,6.9
2017-03-01T07:20:15.534Z,7.01
2017-03-01T07:21:31.215Z,6.89
2017-03-01T07:22:45.958Z,6.92
2017-03-01T07:24:00.079Z,6.9
2017-03-01T07:25:14.224Z,6.89
2017-03-01T07:26:28.741Z,7.05
2017-03-01T07:27:44.341Z,7.14
2017-03-01T07:28:58.563Z,7.1
2017-03-01T07:30:14.299Z,7.1
2017-03-01T07:31:28.809Z,6.97
2017-03-01T07:32:44.377Z,7.07
2017-03-01T07:33:59.957Z,7.07
2017-03-01T07:35:15.528Z,6.96
2017-03-01T07:36:30.505Z,6.96
2017-03-01T07:37:45.590Z,6.86
2017-03-01T07:39:00.293Z,6.97
2017-03-01T07:40:15.002Z,6.9
2017-03-01T07:41:30.046Z,6.92
2017-03-01T07:42:44.576Z,6.9
2017-03-01T07:43:59.688Z,6.83
2017-03-01T07:45:14.457Z,6.85
2017-03-01T07:46:29.245Z,6.83
2017-03-01T07:47:43.304Z,6.95
2017-03-01T07:48:57.438Z,6.93
2017-03-01T07:50:12.884Z,7.03
2017-03-01T07:51:27.353Z,7.08
2017-03-01T07:52:42.389Z,6.96
2017-03-01T07:53:57.475Z,7.01
2017-03-01T07:55:12.216Z,7.26
2017-03-01T07:57:00.596Z,7.5
2017-03-01T07:58:15.300Z,7.62
2017-03-01T07:59:29.926Z,7.7
2017-03-01T08:01:28.286Z,7.66
2017-03-01T08:02:42.826Z,7.64
2017-03-01T08:03:57.983Z,7.61
2017-03-01T08:05:12.262Z,7.46
2017-03-01T08:06:26.961Z,7.44
2017-03-01T08:07:41.737Z,7.44
2017-03-01T08:08:56.329Z,7.48
2017-03-01T08:10:10.455Z,7.46
2017-03-01T08:11:25.446Z,7.43
2017-03-01T08:12:40.064Z,7.37
2017-03-01T08:13:54.446Z,7.4
2017-03-01T08:15:09.118Z,7.39
2017-03-01T08:16:23.570Z,7.29
2017-03-01T08:17:38.922Z,7.39
2017-03-01T08:18:53.062Z,7.47
2017-03-01T08:20:08.264Z,7.56
2017-03-01T08:21:23.517Z,7.64
2017-03-01T08:22:38.176Z,7.59
2017-03-01T08:23:53.152Z,7.62
2017-03-01T08:25:08.795Z,7.78
2017-03-01T08:26:23.225Z,7.69
2017-03-01T08:27:40.137Z,7.77
2017-03-01T08:28:55.213Z,7.84
2017-03-01T08:30:10.822Z,7.84
2017-03-01T08:31:25.579Z,7.81
2017-03-01T08:32:40.529Z,7.81
2017-03-01T08:33:55.264Z,7.95
2017-03-01T08:35:09.824Z,8.08
2017-03-01T08:36:24.597Z,8.06
2017-03-01T08:37:38.870Z,8.13
2017-03-01T08:38:53.304Z,8.18
2017-03-01T08:40:08.256Z,8.23
2017-03-01T08:41:23.017Z,8.14
2017-03-01T08:42:37.476Z,8.16
2017-03-01T08:43:51.816Z,8.09
2017-03-01T08:45:06.737Z,8.13
2017-03-01T08:46:21.938Z,8.2
2017-03-01T08:47:36.212Z,8.16
2017-03-01T08:48:50.897Z,8.18
2017-03-01T08:50:06.721Z,8.13
2017-03-01T08:51:21.418Z,8.06
2017-03-01T08:52:36.446Z,7.99
2017-03-01T08:53:50.745Z,7.96
2017-03-01T08:55:06.396Z,7.95
2017-03-01T08:56:21.302Z,7.85
2017-03-01T08:57:35.448Z,7.83
2017-03-01T08:58:49.481Z,7.91
2017-03-01T09:00:04.402Z,8.01
2017-03-01T09:01:19.208Z,8.06
2017-03-01T09:02:33.421Z,8.14
2017-03-01T09:03:47.964Z,8.26
2017-03-01T09:05:02.044Z,8.13
2017-03-01T09:06:17.175Z,8.06
2017-03-01T09:07:32.338Z,8.01
2017-03-01T09:08:47.609Z,7.99
2017-03-01T09:10:02.144Z,8.05
2017-03-01T09:11:16.256Z,7.99
2017-03-01T09:12:30.466Z,7.98
2017-03-01T09:13:44.605Z,8.02
2017-03-01T09:14:59.763Z,8.11
2017-03-01T09:16:13.841Z,8.08
2017-03-01T09:17:28.036Z,8.05
2017-03-01T09:18:42.731Z,8.09
2017-03-01T09:19:57.839Z,8.01
2017-03-01T09:21:11.967Z,8.2
2017-03-01T09:22:26.163Z,8.24
2017-03-01T09:23:41.393Z,8.16
2017-03-01T09:24:55.937Z,8.16
2017-03-01T09:26:10.524Z,8.05
2017-03-01T09:27:25.129Z,8.26
2017-03-01T09:28:39.272Z,8.26
2017-03-01T09:29:55.336Z,8.18
2017-03-01T09:31:10.031Z,8.21
2017-03-01T09:32:24.712Z,8.23
2017-03-01T09:33:39.856Z,8.21
2017-03-01T09:34:54.137Z,8.13
2017-03-01T09:36:10.017Z,8.16
2017-03-01T09:37:24.213Z,8.23
2017-03-01T09:38:39.888Z,8.18
2017-03-01T09:39:54.082Z,8.23
2017-03-01T09:41:09.786Z,8.35
2017-03-01T09:42:25.013Z,8.56
2017-03-01T09:43:39.619Z,8.71
2017-03-01T09:44:57.070Z,8.74
2017-03-01T09:46:11.726Z,8.71
2017-03-01T09:47:27.178Z,8.74
2017-03-01T09:48:42.260Z,8.86
2017-03-01T09:49:57.011Z,8.77
2017-03-01T09:51:11.580Z,8.81
2017-03-01T09:52:25.703Z,8.74
2017-03-01T09:53:41.776Z,8.81
2017-03-01T09:54:57.245Z,8.89
2017-03-01T09:56:11.807Z,8.87
2017-03-01T09:57:26.808Z,8.81
2017-03-01T09:58:41.893Z,8.77
2017-03-01T09:59:56.432Z,8.86
2017-03-01T10:01:10.926Z,8.84
2017-03-01T10:02:25.581Z,8.86
2017-03-01T10:03:40.244Z,8.79
2017-03-01T10:04:54.469Z,8.86
2017-03-01T10:06:09.119Z,8.77
2017-03-01T10:07:23.168Z,8.87
2017-03-01T10:08:37.361Z,8.81
2017-03-01T10:09:51.905Z,8.93
2017-03-01T10:11:06.545Z,9
2017-03-01T10:12:20.742Z,9.21
2017-03-01T10:13:35.843Z,9.19
2017-03-01T10:14:50.420Z,9.19
2017-03-01T10:16:04.678Z,9.29
2017-03-01T10:17:19.694Z,9.31
2017-03-01T10:18:33.880Z,9.29
2017-03-01T10:19:48.048Z,9.22
2017-03-01T10:21:02.556Z,9.29
2017-03-01T10:22:16.884Z,9.31
2017-03-01T10:23:31.081Z,9.18
2017-03-01T10:24:46.145Z,9.19
2017-03-01T10:26:01.242Z,9.22
2017-03-01T10:27:15.960Z,9.19
2017-03-01T10:28:30.162Z,9.19
2017-03-01T10:29:44.456Z,9.21
2017-03-01T10:30:59.063Z,9.33
2017-03-01T10:32:13.385Z,9.4
2017-03-01T10:33:28.522Z,9.29
2017-03-01T10:34:42.761Z,9.36
2017-03-01T10:35:57.388Z,9.34
2017-03-01T10:37:12.153Z,9.48
2017-03-01T10:38:26.830Z,9.64
2017-03-01T10:39:42.015Z,9.7
2017-03-01T10:40:56.682Z,9.59
2017-03-01T10:42:10.859Z,9.55
2017-03-01T10:43:25.056Z,9.44
2017-03-01T10:44:40.098Z,9.58
2017-03-01T10:45:54.699Z,9.55
2017-03-01T10:47:08.846Z,9.67
2017-03-01T10:48:22.996Z,9.73
2017-03-01T10:49:38.134Z,9.81
2017-03-01T10:50:52.603Z,9.91
2017-03-01T10:52:07.078Z,9.82
2017-03-01T10:53:22.065Z,9.74
2017-03-01T10:54:40.779Z,9.87
2017-03-01T10:55:55.398Z,9.97
2017-03-01T10:57:10.429Z,9.94
2017-03-01T10:58:24.660Z,10.07
2017-03-01T10:59:38.872Z,10.03
2017-03-01T11:00:53.343Z,9.97
2017-03-01T11:02:10.259Z,9.97
2017-03-01T11:03:26.104Z,10.07
2017-03-01T11:04:40.142Z,10.2
2017-03-01T11:05:55.031Z,10.27
2017-03-01T11:07:10.114Z,10.36
2017-03-01T11:08:24.351Z,10.38
2017-03-01T11:09:38.846Z,10.59
2017-03-01T11:10:52.977Z,10.71
2017-03-01T11:12:07.719Z,10.65
2017-03-01T11:13:23.745Z,10.67
2017-03-01T11:14:38.343Z,10.92
2017-03-01T11:15:53.740Z,11.15
2017-03-01T11:17:08.911Z,11.25
2017-03-01T11:18:23.666Z,11.34
2017-03-01T11:19:38.703Z,11.49
2017-03-01T11:20:54.418Z,11.4
2017-03-01T11:22:10.562Z,11.25
2017-03-01T11:23:26.274Z,11.25
2017-03-01T11:24:43.341Z,11.33
2017-03-01T11:25:58.917Z,11.51
2017-03-01T11:27:14.627Z,11.55
2017-03-01T11:28:29.844Z,11.58
2017-03-01T11:29:44.617Z,11.38
2017-03-01T11:30:59.070Z,11.4
2017-03-01T11:32:13.603Z,11.44
2017-03-01T11:33:28.663Z,11.23
2017-03-01T11:34:42.682Z,11.18
2017-03-01T11:35:58.375Z,10.98
2017-03-01T11:37:12.701Z,10.77
2017-03-01T11:38:27.109Z,10.64
2017-03-01T11:39:41.808Z,10.75
2017-03-01T11:40:56.920Z,10.67
2017-03-01T11:42:11.170Z,10.65
2017-03-01T11:43:26.636Z,10.68
2017-03-01T11:44:41.756Z,10.59
2017-03-01T11:45:57.751Z,10.61
2017-03-01T11:47:13.485Z,10.48
2017-03-01T11:48:28.701Z,10.58
2017-03-01T11:49:44.957Z,10.62
2017-03-01T11:51:00.245Z,10.72
2017-03-01T11:52:15.977Z,10.79
2017-03-01T11:53:32.624Z,10.92
2017-03-01T11:54:47.272Z,11.05
2017-03-01T11:56:02.229Z,11.16
2017-03-01T11:57:16.311Z,11.15
2017-03-01T11:58:30.819Z,11.02
2017-03-01T11:59:45.883Z,10.95
2017-03-01T12:01:00.750Z,11.1
2017-03-01T12:02:16.543Z,11.01
2017-03-01T12:03:31.263Z,11.04
2017-03-01T12:04:46.136Z,11.07
2017-03-01T12:06:01.153Z,11.15
2017-03-01T12:07:16.206Z,11.16
2017-03-01T12:08:30.376Z,11.12
2017-03-01T12:09:44.768Z,11.22
2017-03-01T12:11:00.354Z,11.25
2017-03-01T12:12:14.448Z,11.25
2017-03-01T12:13:28.686Z,11.26
2017-03-01T12:14:42.759Z,11.35
2017-03-01T12:15:57.307Z,11.25
2017-03-01T12:17:11.407Z,11.13
2017-03-01T12:18:25.945Z,11.25
2017-03-01T12:19:42.857Z,11.31
2017-03-01T12:20:57.216Z,11.18
2017-03-01T12:22:11.397Z,10.94
2017-03-01T12:23:26.103Z,10.95
2017-03-01T12:24:40.488Z,10.92
2017-03-01T12:25:55.056Z,10.9
2017-03-01T12:27:10.364Z,10.89
2017-03-01T12:28:24.923Z,10.79
2017-03-01T12:29:39.188Z,10.83
2017-03-01T12:30:53.788Z,10.9
2017-03-01T12:32:09.370Z,10.76
2017-03-01T12:33:25.937Z,10.82
2017-03-01T12:34:41.246Z,10.83
2017-03-01T12:35:55.825Z,10.79
2017-03-01T12:37:11.047Z,10.72
2017-03-01T12:38:25.689Z,10.8
2017-03-01T12:39:41.990Z,10.83
2017-03-01T12:40:57.560Z,10.92
2017-03-01T12:42:13.895Z,10.9
2017-03-01T12:43:29.167Z,10.8
2017-03-01T12:44:44.113Z,10.75
2017-03-01T12:45:58.957Z,10.64
2017-03-01T12:47:15.441Z,10.62
2017-03-01T12:48:30.008Z,10.68
2017-03-01T12:49:46.049Z,10.68
2017-03-01T12:51:00.523Z,10.77
2017-03-01T12:52:15.737Z,10.72
